Weather at UNFICYP OP91 Heliport

Public forecast

Using degrees Celsius for public forecast. Weather courtesy of forecast.io.

Closest aviation weather report (METAR) to UNFICYP OP91 Heliport

Closest report is Nicosia (Lefkoşa) Ercan International Airport, 3.5 nm (6.4 km) NE.

2024/04/24 15:50 (retrieved 26 minutes ago)

LCEN 241550Z 08007KT CAVOK 30/06 Q1009 NOSIG RMK RWY11R 10007KT RWY29R 10007KT RWY11L 11010KT

Closest aviation forecast (TAF) to UNFICYP OP91 Heliport

Closest forecast is Nicosia (Lefkoşa) Ercan International Airport, 3.5 nm (6.4 km) NE.

2024/04/24 12:03 (retrieved 4 hours ago)

TAF TAF LCEN 241040Z 2412/2512 15014KT CAVOK